Time;durP1;ratioP1;P1;durP2;ratioP2;P2;SDS_P1;SDS_P2;PMS_P1;PMS_P2;Temp;Humidity;BMP_temperature;BMP_pressure;BME280_temperature;BME280_humidity;BME280_pressure;Samples;Min_cycle;Max_cycle;Signal;HPM_P1;HPM_P2
2023/09/03 00:00:41;;;;;;;4.95;4.55;;;13.20;99.90;;;;;;6120597;23;20010;-66
2023/09/03 00:03:07;;;;;;;4.13;3.70;;;13.20;99.90;;;;;;6094681;23;20453;-66
2023/09/03 00:05:33;;;;;;;4.03;3.67;;;13.10;99.90;;;;;;6092383;23;20442;-66
2023/09/03 00:07:58;;;;;;;3.70;3.40;;;13.00;99.90;;;;;;6093497;23;20018;-66
2023/09/03 00:10:24;;;;;;;6.15;4.45;;;13.20;99.90;;;;;;6120274;23;20024;-66
2023/09/03 00:12:50;;;;;;;5.50;4.60;;;12.90;99.90;;;;;;6121026;23;20144;-66
2023/09/03 00:15:21;;;;;;;4.38;3.97;;;12.90;99.90;;;;;;6093908;23;20562;-66
2023/09/03 00:17:47;;;;;;;5.82;5.25;;;12.80;99.90;;;;;;6093404;23;20020;-66
2023/09/03 00:20:13;;;;;;;5.63;5.13;;;12.90;99.90;;;;;;6120089;23;20588;-66
2023/09/03 00:22:39;;;;;;;7.90;7.10;;;12.80;99.90;;;;;;6121461;23;20038;-66
2023/09/03 00:25:05;;;;;;;5.43;4.93;;;12.90;99.90;;;;;;6119543;23;20040;-66
2023/09/03 00:27:32;;;;;;;5.60;5.10;;;12.90;99.90;;;;;;6093983;23;20756;-66
2023/09/03 00:29:57;;;;;;;5.18;4.78;;;12.80;99.90;;;;;;6093396;23;20014;-66
2023/09/03 00:32:23;;;;;;;6.47;5.90;;;12.80;99.90;;;;;;6093072;23;20026;-66
2023/09/03 00:34:49;;;;;;;6.68;6.07;;;12.80;99.90;;;;;;6119874;23;20013;-66
2023/09/03 00:37:14;;;;;;;5.95;5.45;;;12.70;99.90;;;;;;6092134;23;20018;-66
2023/09/03 00:39:40;;;;;;;5.25;4.75;;;12.80;99.90;;;;;;6093550;23;20040;-66
2023/09/03 00:42:05;;;;;;;5.40;4.90;;;12.80;99.90;;;;;;6119293;23;20018;-66
2023/09/03 00:44:31;;;;;;;5.20;4.72;;;12.70;99.90;;;;;;6120044;23;20013;-66
2023/09/03 00:46:57;;;;;;;5.13;4.63;;;12.70;99.90;;;;;;6117346;23;20444;-66
2023/09/03 00:49:24;;;;;;;6.00;5.50;;;12.60;99.90;;;;;;6119864;23;20024;-66
2023/09/03 00:51:52;;;;;;;5.18;4.65;;;12.60;99.90;;;;;;6120274;23;20338;-66
2023/09/03 00:54:21;;;;;;;5.05;4.40;;;12.50;99.90;;;;;;6120313;23;20077;-66
2023/09/03 00:56:49;;;;;;;5.00;4.53;;;12.40;99.90;;;;;;6118030;23;20014;-66
2023/09/03 00:59:17;;;;;;;5.25;4.68;;;12.30;99.90;;;;;;6093573;23;20014;-66
2023/09/03 01:01:43;;;;;;;6.30;5.70;;;12.30;99.90;;;;;;6093582;23;20124;-66
2023/09/03 01:04:10;;;;;;;5.95;5.32;;;12.40;99.90;;;;;;6094551;23;20049;-66
2023/09/03 01:06:35;;;;;;;5.53;5.05;;;12.40;99.90;;;;;;6091714;23;20018;-66
2023/09/03 01:09:01;;;;;;;5.50;5.00;;;12.30;99.90;;;;;;6094115;23;20040;-66
2023/09/03 01:11:38;;;;;;;6.35;5.75;;;12.30;99.90;;;;;;6093760;23;20014;-66
2023/09/03 01:14:15;;;;;;;5.63;5.20;;;12.30;99.90;;;;;;6119626;23;20010;-66
2023/09/03 01:16:53;;;;;;;8.65;6.13;;;12.30;99.90;;;;;;6092624;23;20029;-66
2023/09/03 01:19:53;;;;;;;6.70;6.13;;;12.20;99.90;;;;;;6094352;23;20010;-66
2023/09/03 01:22:46;;;;;;;7.03;6.43;;;12.20;99.90;;;;;;6094589;23;20437;-66
2023/09/03 01:25:39;;;;;;;8.07;7.38;;;12.20;99.90;;;;;;6093108;23;20022;-66
2023/09/03 01:28:30;;;;;;;7.22;6.53;;;12.30;99.90;;;;;;6119102;23;20017;-66
2023/09/03 01:31:17;;;;;;;7.70;7.00;;;12.40;99.90;;;;;;6119031;23;20083;-66
2023/09/03 01:33:45;;;;;;;7.10;6.40;;;12.30;99.90;;;;;;6091922;23;20018;-66
2023/09/03 01:36:13;;;;;;;7.90;7.18;;;12.40;99.90;;;;;;6116649;23;20116;-66
2023/09/03 01:38:39;;;;;;;9.50;6.93;;;12.40;99.90;;;;;;6119524;23;20330;-68
2023/09/03 01:41:06;;;;;;;7.40;6.70;;;12.40;99.90;;;;;;6093679;23;20014;-66
2023/09/03 01:43:32;;;;;;;8.02;7.22;;;12.40;99.90;;;;;;6119843;23;20048;-66
2023/09/03 01:46:02;;;;;;;8.38;7.55;;;12.50;99.90;;;;;;6093266;23;20021;-66
2023/09/03 01:49:14;;;;;;;7.53;6.55;;;12.60;99.90;;;;;;6118335;23;20028;-66
2023/09/03 01:51:48;;;;;;;6.20;5.60;;;12.50;99.90;;;;;;6092801;23;20021;-66
2023/09/03 01:54:25;;;;;;;7.53;6.00;;;12.40;99.90;;;;;;6094214;23;20017;-66
2023/09/03 01:57:16;;;;;;;6.25;5.75;;;12.40;99.90;;;;;;6116615;23;20345;-66
2023/09/03 02:00:11;;;;;;;6.88;6.25;;;12.30;99.90;;;;;;6120461;23;20383;-66
2023/09/03 02:02:39;;;;;;;8.20;7.32;;;12.30;99.90;;;;;;6118878;23;20491;-66
2023/09/03 02:05:06;;;;;;;4.97;4.57;;;12.30;99.90;;;;;;6119231;23;20014;-66
2023/09/03 02:07:32;;;;;;;5.00;4.60;;;12.20;99.90;;;;;;6093292;23;20014;-66
2023/09/03 02:09:57;;;;;;;5.65;5.13;;;12.20;99.90;;;;;;6119228;23;20014;-66
2023/09/03 02:12:24;;;;;;;7.13;6.43;;;12.20;99.90;;;;;;6120461;23;20101;-66
2023/09/03 02:14:53;;;;;;;7.38;6.65;;;12.10;99.90;;;;;;6094362;23;20064;-66
2023/09/03 02:17:20;;;;;;;11.55;8.82;;;12.20;99.90;;;;;;6118409;23;20434;-66
2023/09/03 02:19:49;;;;;;;8.93;8.02;;;12.20;99.90;;;;;;6120392;23;20010;-66
2023/09/03 02:22:15;;;;;;;7.82;7.13;;;12.20;99.90;;;;;;6119984;23;20095;-66
2023/09/03 02:24:41;;;;;;;7.45;6.85;;;12.20;99.90;;;;;;6093320;23;20060;-66
2023/09/03 02:27:06;;;;;;;7.20;6.60;;;12.20;99.90;;;;;;6117373;23;20337;-66
2023/09/03 02:29:32;;;;;;;7.25;5.97;;;12.20;99.90;;;;;;6093052;23;20028;-66
2023/09/03 02:31:58;;;;;;;7.20;6.63;;;12.20;99.90;;;;;;6093520;23;20028;-66
2023/09/03 02:34:23;;;;;;;6.35;5.85;;;12.20;99.90;;;;;;6120211;23;20025;-66
2023/09/03 02:36:49;;;;;;;6.97;6.45;;;12.20;99.90;;;;;;6118154;23;20049;-66
2023/09/03 02:39:14;;;;;;;6.95;6.25;;;12.20;99.90;;;;;;6094021;23;20010;-66
2023/09/03 02:41:40;;;;;;;6.45;5.95;;;12.20;99.90;;;;;;6093087;23;20021;-66
2023/09/03 02:44:07;;;;;;;6.97;6.30;;;12.20;99.90;;;;;;6093261;23;20445;-66
2023/09/03 02:46:33;;;;;;;6.60;6.00;;;12.20;99.90;;;;;;6092253;23;20093;-66
2023/09/03 02:48:58;;;;;;;5.75;5.32;;;12.10;99.90;;;;;;6119969;23;20056;-66
2023/09/03 02:51:24;;;;;;;5.68;5.28;;;12.00;99.90;;;;;;6093315;23;20017;-66
2023/09/03 02:53:51;;;;;;;6.82;6.30;;;12.00;99.90;;;;;;6094177;23;20075;-66
2023/09/03 02:56:17;;;;;;;6.13;5.63;;;12.00;99.90;;;;;;6092190;23;20021;-66
2023/09/03 02:58:47;;;;;;;5.88;5.22;;;12.00;99.90;;;;;;6118245;23;20014;-66
2023/09/03 03:01:14;;;;;;;5.38;4.97;;;11.90;99.90;;;;;;6093141;23;20014;-66
2023/09/03 03:03:44;;;;;;;5.72;5.07;;;11.90;99.90;;;;;;6119769;23;20088;-66
2023/09/03 03:06:10;;;;;;;5.85;5.35;;;11.90;99.90;;;;;;6090968;23;20048;-66
2023/09/03 03:08:36;;;;;;;6.53;5.75;;;11.90;99.90;;;;;;6093311;23;20044;-66
2023/09/03 03:11:09;;;;;;;6.97;6.38;;;11.90;99.90;;;;;;6092833;23;20097;-66
2023/09/03 03:13:35;;;;;;;10.95;8.00;;;11.90;99.90;;;;;;6119539;23;20472;-66
2023/09/03 03:16:08;;;;;;;7.28;6.03;;;11.80;99.90;;;;;;6119985;23;20018;-66
2023/09/03 03:18:35;;;;;;;6.97;5.38;;;11.80;99.90;;;;;;6120430;23;20014;-66
2023/09/03 03:21:17;;;;;;;4.95;4.53;;;11.70;99.90;;;;;;6093153;23;20022;-66
2023/09/03 03:23:46;;;;;;;6.53;4.82;;;11.70;99.90;;;;;;6121267;23;20077;-66
2023/09/03 03:26:12;;;;;;;7.50;6.80;;;11.60;99.90;;;;;;6119289;23;20022;-66
2023/09/03 03:28:38;;;;;;;7.78;5.95;;;11.70;99.90;;;;;;6119978;23;20341;-66
2023/09/03 03:31:18;;;;;;;4.72;4.40;;;11.70;99.90;;;;;;6069541;23;20441;-66
2023/09/03 03:33:45;;;;;;;4.05;3.75;;;11.80;99.90;;;;;;6120483;23;20025;-66
2023/09/03 03:36:16;;;;;;;3.95;3.65;;;11.80;99.90;;;;;;6093459;23;20014;-66
2023/09/03 03:38:42;;;;;;;5.43;5.03;;;11.70;99.90;;;;;;6119342;23;20317;-66
2023/09/03 03:41:11;;;;;;;5.53;5.07;;;11.70;99.90;;;;;;6120578;23;20022;-66
2023/09/03 03:43:39;;;;;;;5.65;5.25;;;11.70;99.90;;;;;;6120539;23;20017;-66
2023/09/03 03:46:06;;;;;;;6.90;6.30;;;11.70;99.90;;;;;;6119793;23;20018;-66
2023/09/03 03:48:32;;;;;;;6.32;5.80;;;11.60;99.90;;;;;;6094030;23;20741;-66
2023/09/03 03:50:58;;;;;;;9.73;7.00;;;11.60;99.90;;;;;;6119986;23;20024;-66
2023/09/03 03:53:23;;;;;;;14.60;6.05;;;11.50;99.90;;;;;;6119924;23;20065;-66
2023/09/03 03:56:07;;;;;;;18.30;6.38;;;11.50;99.90;;;;;;6093538;23;20017;-66
2023/09/03 03:58:35;;;;;;;12.85;5.05;;;11.40;99.90;;;;;;6120072;23;20010;-66
2023/09/03 04:01:19;;;;;;;11.05;6.25;;;11.40;99.90;;;;;;6119706;23;20072;-66
2023/09/03 04:03:47;;;;;;;5.45;5.05;;;11.40;99.90;;;;;;6121040;23;20397;-66
2023/09/03 04:06:12;;;;;;;6.05;5.55;;;11.40;99.90;;;;;;6119370;23;20071;-66
2023/09/03 04:08:39;;;;;;;7.28;6.68;;;11.30;99.90;;;;;;6119547;23;20014;-66
2023/09/03 04:11:09;;;;;;;8.30;5.07;;;11.30;99.90;;;;;;6119117;23;20018;-66
2023/09/03 04:13:35;;;;;;;10.30;5.13;;;11.30;99.90;;;;;;6120464;23;20010;-66
2023/09/03 04:16:07;;;;;;;6.07;5.57;;;11.30;99.90;;;;;;6093407;23;20071;-66
2023/09/03 04:18:33;;;;;;;6.43;5.63;;;11.30;99.90;;;;;;6118768;23;20018;-66
2023/09/03 04:20:59;;;;;;;5.85;5.20;;;11.30;99.90;;;;;;6119475;23;20084;-66
2023/09/03 04:23:25;;;;;;;6.82;6.22;;;11.30;99.90;;;;;;6094556;23;20122;-66
2023/09/03 04:25:51;;;;;;;11.85;4.88;;;11.20;99.90;;;;;;6118744;23;20024;-66
2023/09/03 04:28:18;;;;;;;13.88;5.75;;;11.20;99.90;;;;;;6093508;23;20053;-66
2023/09/03 04:30:44;;;;;;;15.10;5.60;;;11.20;99.90;;;;;;6093644;23;20022;-66
2023/09/03 04:33:10;;;;;;;12.27;6.00;;;11.10;99.90;;;;;;6119961;23;20466;-66
2023/09/03 04:35:36;;;;;;;6.88;5.07;;;11.10;99.90;;;;;;6092829;23;20010;-66
2023/09/03 04:38:02;;;;;;;6.38;5.82;;;11.20;99.90;;;;;;6093827;23;20018;-66
2023/09/03 04:40:32;;;;;;;9.73;5.47;;;11.10;99.90;;;;;;6117813;23;20014;-66
2023/09/03 04:42:58;;;;;;;5.93;5.32;;;11.10;99.90;;;;;;6119216;23;20017;-66
2023/09/03 04:45:23;;;;;;;6.00;5.30;;;11.00;99.90;;;;;;6119205;23;20022;-66
2023/09/03 04:47:49;;;;;;;6.60;6.00;;;11.00;99.90;;;;;;6119305;23;20063;-66
2023/09/03 04:50:14;;;;;;;5.63;5.13;;;11.10;99.90;;;;;;6092776;23;20042;-66
2023/09/03 04:52:43;;;;;;;5.93;5.40;;;11.10;99.90;;;;;;6093767;23;20018;-66
2023/09/03 04:55:09;;;;;;;5.57;5.07;;;11.00;99.90;;;;;;6093281;23;20517;-66
2023/09/03 04:57:35;;;;;;;5.70;5.03;;;11.10;99.90;;;;;;6093277;23;20050;-66
2023/09/03 05:00:01;;;;;;;6.25;5.65;;;11.10;99.90;;;;;;6118954;23;20025;-66
2023/09/03 05:02:26;;;;;;;6.38;5.80;;;11.20;99.90;;;;;;6118311;23;20014;-66
2023/09/03 05:04:52;;;;;;;6.28;5.78;;;11.20;99.90;;;;;;6094016;23;20017;-66
2023/09/03 05:07:17;;;;;;;5.15;4.75;;;11.30;99.90;;;;;;6093186;23;20072;-66
2023/09/03 05:09:43;;;;;;;6.05;5.43;;;11.30;99.90;;;;;;6093563;23;20463;-66
2023/09/03 05:12:09;;;;;;;7.90;5.80;;;11.30;99.90;;;;;;6092827;23;20342;-66
2023/09/03 05:14:34;;;;;;;4.88;4.47;;;11.30;99.90;;;;;;6119491;23;20006;-66
2023/09/03 05:17:00;;;;;;;6.22;4.80;;;11.40;99.90;;;;;;6092004;23;20071;-66
2023/09/03 05:19:25;;;;;;;4.70;4.40;;;11.40;99.90;;;;;;6119599;23;20014;-66
2023/09/03 05:21:51;;;;;;;5.07;4.65;;;11.50;99.90;;;;;;6092675;23;20025;-66
2023/09/03 05:24:17;;;;;;;4.63;4.22;;;11.50;99.90;;;;;;6120127;23;20079;-66
2023/09/03 05:26:43;;;;;;;5.82;5.32;;;11.60;99.90;;;;;;6117344;23;20022;-66
2023/09/03 05:29:09;;;;;;;5.13;4.70;;;11.60;99.90;;;;;;6120136;23;20014;-66
2023/09/03 05:31:35;;;;;;;6.53;5.45;;;11.80;99.90;;;;;;6092974;23;20391;-66
2023/09/03 05:34:01;;;;;;;6.72;6.13;;;11.80;99.90;;;;;;6119606;23;20467;-66
2023/09/03 05:36:27;;;;;;;5.20;4.78;;;11.90;99.90;;;;;;6118639;23;20057;-66
2023/09/03 05:38:53;;;;;;;5.32;4.75;;;11.90;99.90;;;;;;6119081;23;20018;-66
2023/09/03 05:41:18;;;;;;;5.70;5.20;;;12.00;99.90;;;;;;6092700;23;20017;-66
2023/09/03 05:43:44;;;;;;;5.47;4.97;;;12.10;99.90;;;;;;6119819;23;20037;-66
2023/09/03 05:46:09;;;;;;;6.63;4.85;;;12.30;99.90;;;;;;6119126;23;20077;-66
2023/09/03 05:48:35;;;;;;;5.22;4.80;;;12.60;99.90;;;;;;6093292;23;20460;-66
2023/09/03 05:51:05;;;;;;;5.47;4.97;;;13.10;99.90;;;;;;6119054;23;20026;-66
2023/09/03 05:53:32;;;;;;;5.40;5.00;;;13.60;99.90;;;;;;6093682;23;20010;-66
2023/09/03 05:56:09;;;;;;;5.57;5.10;;;14.00;99.90;;;;;;6118333;23;20325;-66
2023/09/03 05:58:34;;;;;;;4.93;4.60;;;14.30;99.90;;;;;;6118348;23;20091;-66
2023/09/03 06:01:08;;;;;;;4.03;3.72;;;14.50;99.90;;;;;;6118138;23;20018;-66
2023/09/03 06:03:33;;;;;;;3.97;3.67;;;14.60;99.90;;;;;;6094152;23;20022;-66
2023/09/03 06:06:03;;;;;;;3.03;2.83;;;15.00;99.90;;;;;;6119180;23;20067;-66
2023/09/03 06:08:28;;;;;;;5.63;3.42;;;15.70;99.90;;;;;;6117766;23;20333;-66
2023/09/03 06:10:56;;;;;;;4.72;2.58;;;16.30;99.90;;;;;;6092345;23;20018;-66
2023/09/03 06:13:23;;;;;;;2.90;2.70;;;17.00;99.90;;;;;;6094213;23;20014;-66
2023/09/03 06:15:49;;;;;;;2.50;2.40;;;17.70;99.90;;;;;;6093276;23;20014;-66
2023/09/03 06:18:15;;;;;;;2.60;2.40;;;17.90;99.90;;;;;;6092889;23;20014;-66
2023/09/03 06:20:41;;;;;;;3.33;2.08;;;18.10;99.90;;;;;;6118933;23;20006;-66
2023/09/03 06:23:06;;;;;;;2.72;2.53;;;18.20;99.90;;;;;;6119583;23;20014;-66
2023/09/03 06:25:32;;;;;;;3.13;2.90;;;18.20;99.90;;;;;;6092703;23;20085;-66
2023/09/03 06:27:58;;;;;;;2.78;2.58;;;18.10;99.90;;;;;;6117890;23;20028;-66
2023/09/03 06:30:23;;;;;;;4.38;2.75;;;17.90;99.90;;;;;;6091922;23;20018;-66
2023/09/03 06:32:49;;;;;;;2.97;2.33;;;18.00;99.90;;;;;;6091863;23;20022;-66
2023/09/03 06:35:14;;;;;;;2.90;2.22;;;18.10;99.90;;;;;;6118364;23;20013;-66
2023/09/03 06:37:40;;;;;;;4.03;2.10;;;18.00;99.90;;;;;;6091339;23;20049;-66
2023/09/03 06:40:07;;;;;;;3.13;2.13;;;17.90;99.90;;;;;;6117353;23;20097;-66
2023/09/03 06:42:32;;;;;;;2.00;1.90;;;17.90;99.90;;;;;;6092639;23;20018;-66
2023/09/03 06:44:58;;;;;;;1.58;1.45;;;18.00;99.90;;;;;;6118154;23;20021;-66
2023/09/03 06:47:23;;;;;;;1.65;1.55;;;17.90;99.90;;;;;;6091270;23;20017;-66
2023/09/03 06:49:50;;;;;;;2.92;1.73;;;17.90;99.90;;;;;;6068556;23;20108;-66
2023/09/03 06:52:16;;;;;;;1.85;1.50;;;17.70;99.90;;;;;;6117782;23;20018;-66
2023/09/03 06:54:42;;;;;;;2.15;1.92;;;17.60;99.90;;;;;;6091999;23;20059;-66
2023/09/03 06:57:08;;;;;;;2.30;2.10;;;17.60;99.90;;;;;;6091143;23;20485;-66
2023/09/03 06:59:33;;;;;;;1.83;1.73;;;17.60;99.90;;;;;;6092469;23;20041;-66
2023/09/03 07:02:00;;;;;;;1.85;1.65;;;17.60;99.90;;;;;;6117149;23;20026;-66
2023/09/03 07:04:25;;;;;;;1.60;1.50;;;17.70;99.90;;;;;;6118884;23;20462;-66
2023/09/03 07:06:51;;;;;;;1.85;1.58;;;17.80;99.90;;;;;;6089384;23;20080;-66
2023/09/03 07:09:17;;;;;;;1.50;1.17;;;17.90;99.90;;;;;;6118220;23;20022;-66
2023/09/03 07:11:43;;;;;;;1.20;1.10;;;18.00;99.90;;;;;;6117731;23;20032;-66
2023/09/03 07:14:08;;;;;;;1.58;1.48;;;18.10;99.90;;;;;;6093186;23;20018;-66
2023/09/03 07:16:35;;;;;;;1.95;1.75;;;18.20;99.90;;;;;;6116124;23;20089;-66
2023/09/03 07:19:00;;;;;;;1.55;1.45;;;18.30;99.90;;;;;;6118563;23;20018;-66
2023/09/03 07:21:27;;;;;;;1.73;1.63;;;18.30;99.90;;;;;;6111319;23;20025;-66
2023/09/03 07:23:53;;;;;;;2.00;1.50;;;18.50;99.90;;;;;;6115915;23;20408;-66
2023/09/03 07:26:19;;;;;;;3.30;1.80;;;18.40;99.90;;;;;;6091606;23;20014;-66
2023/09/03 07:28:44;;;;;;;3.85;2.08;;;18.40;99.90;;;;;;6114594;23;20020;-66
2023/09/03 07:31:10;;;;;;;1.85;1.75;;;18.30;99.90;;;;;;6090284;23;20145;-66
2023/09/03 07:33:38;;;;;;;2.72;2.53;;;18.10;99.90;;;;;;6088474;23;20067;-66
2023/09/03 07:36:09;;;;;;;2.45;2.25;;;18.10;99.90;;;;;;6090835;23;20444;-66
2023/09/03 07:38:36;;;;;;;2.47;2.10;;;18.10;99.90;;;;;;6117592;23;20018;-66
2023/09/03 07:41:02;;;;;;;2.83;2.63;;;18.00;99.90;;;;;;6117376;23;20025;-66
2023/09/03 07:43:29;;;;;;;3.75;2.78;;;18.10;99.90;;;;;;6117233;23;20018;-66
2023/09/03 07:45:55;;;;;;;4.20;2.58;;;18.10;99.90;;;;;;6092120;23;20022;-66
2023/09/03 07:48:21;;;;;;;2.38;2.10;;;18.10;99.90;;;;;;6118169;23;20318;-66
2023/09/03 07:50:46;;;;;;;4.05;2.60;;;18.10;99.90;;;;;;6115753;23;20040;-66
2023/09/03 07:53:12;;;;;;;3.03;2.35;;;18.20;99.90;;;;;;6091055;23;20437;-66
2023/09/03 07:55:38;;;;;;;4.18;2.80;;;18.20;99.90;;;;;;6091807;23;20349;-66
2023/09/03 07:58:03;;;;;;;2.67;2.30;;;18.30;99.90;;;;;;6118069;23;20093;-67
2023/09/03 08:00:29;;;;;;;4.22;2.15;;;18.40;99.90;;;;;;6091845;23;20022;-66
2023/09/03 08:02:54;;;;;;;2.97;2.75;;;18.60;99.90;;;;;;6090351;23;20021;-66
2023/09/03 08:05:20;;;;;;;2.67;2.05;;;18.70;99.90;;;;;;6092822;23;20022;-69
2023/09/03 08:07:46;;;;;;;3.15;2.60;;;18.80;99.90;;;;;;6093376;23;20024;-66
2023/09/03 08:10:12;;;;;;;3.33;2.55;;;19.10;99.90;;;;;;6093266;23;20025;-66
2023/09/03 08:12:38;;;;;;;5.30;3.08;;;19.20;99.90;;;;;;6093694;23;20093;-66
2023/09/03 08:15:03;;;;;;;3.78;3.25;;;19.40;99.90;;;;;;6092429;23;20086;-67
2023/09/03 08:17:32;;;;;;;4.00;3.33;;;19.70;99.90;;;;;;6118290;23;20042;-67
2023/09/03 08:19:58;;;;;;;4.75;3.10;;;20.00;99.90;;;;;;6118021;23;20010;-66
2023/09/03 08:22:23;;;;;;;5.18;3.55;;;20.20;99.90;;;;;;6117185;23;20394;-66
2023/09/03 08:24:49;;;;;;;4.38;3.13;;;20.30;99.90;;;;;;6119195;23;20013;-66
2023/09/03 08:27:15;;;;;;;4.55;3.03;;;20.30;99.90;;;;;;6090913;23;20024;-67
2023/09/03 08:29:40;;;;;;;4.10;2.88;;;20.40;99.90;;;;;;6118559;23;20018;-67
2023/09/03 08:32:06;;;;;;;5.43;2.28;;;20.50;99.90;;;;;;6067595;23;20029;-66
2023/09/03 08:34:32;;;;;;;5.90;2.33;;;20.70;99.90;;;;;;6119715;23;20376;-66
2023/09/03 08:36:57;;;;;;;2.60;1.90;;;20.70;99.90;;;;;;6117828;23;20022;-66
2023/09/03 08:39:23;;;;;;;3.30;1.65;;;20.70;99.90;;;;;;6091148;23;20479;-66
2023/09/03 08:41:49;;;;;;;3.55;1.58;;;20.80;99.90;;;;;;6092849;23;20025;-66
2023/09/03 08:44:36;;;;;;;2.78;1.60;;;20.90;99.90;;;;;;6118632;23;20010;-66
2023/09/03 08:47:03;;;;;;;1.75;1.30;;;21.00;99.90;;;;;;6118548;23;20311;-66
2023/09/03 08:49:31;;;;;;;4.03;2.10;;;21.20;99.90;;;;;;6094035;23;20014;-66
2023/09/03 08:52:00;;;;;;;2.65;2.20;;;21.20;99.90;;;;;;6093393;23;20029;-66
2023/09/03 08:54:26;;;;;;;2.55;1.77;;;21.10;99.90;;;;;;6093526;23;20500;-66
2023/09/03 08:56:52;;;;;;;5.05;1.90;;;21.20;99.90;;;;;;6092375;23;20021;-66
2023/09/03 08:59:17;;;;;;;4.10;1.38;;;21.30;99.90;;;;;;6119226;23;20014;-66
2023/09/03 09:01:45;;;;;;;3.35;1.00;;;21.50;99.90;;;;;;6092028;23;20025;-66
2023/09/03 09:04:11;;;;;;;3.17;1.30;;;21.70;99.90;;;;;;6093094;23;20024;-66
2023/09/03 09:06:43;;;;;;;2.50;1.10;;;22.00;99.90;;;;;;6091325;23;20068;-67
2023/09/03 09:09:09;;;;;;;4.63;1.38;;;22.00;99.90;;;;;;6092504;23;20022;-66
2023/09/03 09:11:54;;;;;;;2.85;1.20;;;22.00;99.90;;;;;;6092769;23;20484;-66
2023/09/03 09:14:35;;;;;;;1.92;0.90;;;22.10;99.90;;;;;;6070583;23;20018;-66
2023/09/03 09:17:00;;;;;;;2.17;1.17;;;22.10;99.90;;;;;;6092256;23;20037;-66
2023/09/03 09:19:26;;;;;;;3.30;1.13;;;22.20;99.90;;;;;;6119773;23;20014;-66
2023/09/03 09:21:52;;;;;;;1.20;0.70;;;22.20;99.90;;;;;;6092655;23;20025;-66
2023/09/03 09:24:18;;;;;;;2.83;0.93;;;22.40;99.90;;;;;;6118630;23;20046;-67
2023/09/03 09:26:43;;;;;;;2.83;1.42;;;22.50;99.90;;;;;;6091863;23;20022;-66
2023/09/03 09:29:09;;;;;;;3.00;1.25;;;22.50;99.90;;;;;;6119555;23;20014;-66
2023/09/03 09:31:35;;;;;;;0.82;0.80;;;22.60;99.90;;;;;;6067566;23;20045;-66
2023/09/03 09:34:08;;;;;;;2.45;0.77;;;22.50;99.90;;;;;;6118834;23;20360;-66
2023/09/03 09:36:34;;;;;;;1.92;1.05;;;22.40;99.90;;;;;;6090890;23;20022;-66
2023/09/03 09:39:08;;;;;;;1.55;1.00;;;22.50;99.90;;;;;;6092097;23;20032;-66
2023/09/03 09:41:39;;;;;;;1.83;0.75;;;22.50;99.90;;;;;;6118851;23;20045;-66
2023/09/03 09:44:11;;;;;;;1.30;0.60;;;22.50;99.90;;;;;;6118427;23;20018;-66
2023/09/03 09:46:38;;;;;;;2.15;0.70;;;22.70;99.90;;;;;;6091601;23;20021;-66
2023/09/03 09:49:04;;;;;;;2.72;0.98;;;22.80;99.90;;;;;;6119382;23;20424;-66
2023/09/03 09:51:31;;;;;;;1.42;0.60;;;22.80;99.90;;;;;;6119012;23;20014;-66
2023/09/03 09:54:02;;;;;;;3.97;1.30;;;22.90;99.90;;;;;;6117714;23;20010;-66
2023/09/03 09:56:35;;;;;;;1.80;0.98;;;22.90;99.90;;;;;;6117236;23;20502;-67
2023/09/03 09:59:02;;;;;;;2.65;0.98;;;22.90;99.90;;;;;;6117330;23;20021;-67
2023/09/03 10:01:41;;;;;;;1.83;0.90;;;22.70;99.90;;;;;;6091425;23;20026;-66
2023/09/03 10:04:07;;;;;;;2.20;0.65;;;22.60;99.90;;;;;;6118151;23;20014;-67
2023/09/03 10:06:34;;;;;;;2.33;1.13;;;22.80;99.90;;;;;;6117546;23;20049;-66
2023/09/03 10:08:59;;;;;;;2.42;1.08;;;22.90;99.90;;;;;;6092282;23;20063;-67
2023/09/03 10:11:25;;;;;;;6.55;1.77;;;23.00;99.90;;;;;;6091184;23;20018;-66
2023/09/03 10:13:50;;;;;;;1.60;0.68;;;23.10;99.90;;;;;;6090594;23;20014;-67
2023/09/03 10:16:19;;;;;;;2.25;0.95;;;23.20;99.90;;;;;;6087487;23;20556;-67
2023/09/03 10:18:47;;;;;;;2.55;0.90;;;23.30;99.90;;;;;;6118645;23;20037;-66
2023/09/03 10:21:18;;;;;;;0.82;0.40;;;23.60;99.90;;;;;;6089936;23;20056;-64
2023/09/03 10:23:48;;;;;;;2.53;0.82;;;23.70;99.90;;;;;;6091894;23;20071;-67
2023/09/03 10:26:18;;;;;;;2.05;0.77;;;23.70;99.90;;;;;;6117506;23;20014;-66
2023/09/03 10:28:47;;;;;;;2.22;0.60;;;23.90;99.90;;;;;;6117367;23;20041;-66
2023/09/03 10:31:15;;;;;;;2.35;0.73;;;23.90;99.90;;;;;;6090776;23;20356;-67
2023/09/03 10:33:41;;;;;;;2.25;0.80;;;23.80;99.90;;;;;;6116955;23;20441;-66
2023/09/03 10:36:12;;;;;;;1.13;0.60;;;23.90;99.90;;;;;;6117933;23;20044;-66
2023/09/03 10:38:38;;;;;;;2.10;0.75;;;23.90;99.90;;;;;;6116795;23;20029;-70
2023/09/03 10:41:17;;;;;;;1.33;1.00;;;24.10;99.90;;;;;;6117864;23;20453;-69
2023/09/03 10:43:43;;;;;;;2.28;1.35;;;24.00;99.90;;;;;;6119438;23;20018;-67
2023/09/03 10:46:08;;;;;;;3.50;1.35;;;24.10;99.90;;;;;;6092431;23;20357;-67
2023/09/03 10:48:35;;;;;;;2.28;0.73;;;24.10;99.90;;;;;;6118134;23;20017;-67
2023/09/03 10:51:00;;;;;;;1.50;0.85;;;24.20;99.90;;;;;;6092812;23;20068;-68
2023/09/03 10:53:43;;;;;;;1.30;0.80;;;24.20;99.90;;;;;;6068426;23;20014;-68
2023/09/03 10:56:17;;;;;;;2.38;0.60;;;24.10;99.90;;;;;;6118855;23;20064;-67
2023/09/03 10:59:02;;;;;;;3.55;0.60;;;24.20;99.90;;;;;;6119074;23;20037;-68
2023/09/03 11:01:32;;;;;;;2.05;0.80;;;24.40;99.90;;;;;;6117589;23;20018;-67
2023/09/03 11:04:02;;;;;;;2.45;0.82;;;24.50;99.90;;;;;;6118770;23;20081;-67
2023/09/03 11:06:31;;;;;;;1.95;0.68;;;24.50;99.90;;;;;;6068736;23;20075;-67
2023/09/03 11:09:06;;;;;;;2.67;0.90;;;24.60;99.90;;;;;;6117210;23;20021;-66
2023/09/03 11:11:35;;;;;;;3.58;0.90;;;24.40;99.90;;;;;;6092493;23;20022;-69
2023/09/03 11:14:01;;;;;;;1.85;0.55;;;24.50;99.90;;;;;;6118672;23;20112;-69
2023/09/03 11:16:32;;;;;;;4.80;1.02;;;24.50;99.90;;;;;;6091508;23;20018;-69
2023/09/03 11:19:00;;;;;;;1.58;0.65;;;24.50;99.90;;;;;;6088035;23;20802;-69
2023/09/03 11:21:26;;;;;;;3.00;0.80;;;24.70;99.90;;;;;;6117485;23;20457;-71
2023/09/03 11:24:02;;;;;;;69.85;21.98;;;24.60;99.90;;;;;;6092258;23;20445;-68
2023/09/03 11:26:28;;;;;;;4.00;0.60;;;24.70;99.90;;;;;;6091303;23;20026;-65
2023/09/03 11:28:54;;;;;;;0.73;0.45;;;24.70;99.90;;;;;;6116991;23;20309;-65
2023/09/03 11:31:20;;;;;;;1.35;0.50;;;24.60;99.90;;;;;;6116888;23;20018;-65
2023/09/03 11:33:46;;;;;;;0.80;0.38;;;24.60;99.90;;;;;;6090358;23;20018;-66
2023/09/03 11:36:12;;;;;;;2.05;0.80;;;24.60;99.90;;;;;;6117800;23;20103;-65
2023/09/03 11:38:37;;;;;;;2.45;0.90;;;24.50;99.90;;;;;;6091147;23;20072;-65
2023/09/03 11:41:03;;;;;;;1.60;0.60;;;24.30;99.90;;;;;;6090424;23;20022;-65
2023/09/03 11:43:30;;;;;;;1.40;0.70;;;24.20;99.90;;;;;;6091367;23;20060;-65
2023/09/03 11:46:00;;;;;;;1.70;0.60;;;24.10;99.90;;;;;;6117853;23;20068;-65
2023/09/03 11:48:30;;;;;;;1.48;0.55;;;24.20;99.90;;;;;;6116533;23;20025;-65
2023/09/03 11:50:56;;;;;;;0.82;0.60;;;24.40;99.90;;;;;;6115175;23;20447;-66
2023/09/03 11:53:25;;;;;;;3.75;0.70;;;24.50;99.90;;;;;;6091759;23;20050;-67
2023/09/03 11:55:59;;;;;;;3.30;1.42;;;24.60;99.90;;;;;;6091775;23;20036;-67
2023/09/03 11:58:28;;;;;;;3.70;1.50;;;24.70;99.90;;;;;;6092141;23;20014;-67
2023/09/03 12:00:54;;;;;;;2.15;0.55;;;24.70;99.90;;;;;;6116852;23;20381;-67
2023/09/03 12:03:21;;;;;;;1.45;0.52;;;24.50;99.90;;;;;;6092198;23;20325;-67
2023/09/03 12:05:47;;;;;;;0.80;0.47;;;24.20;99.90;;;;;;6117612;23;20044;-66
2023/09/03 12:08:13;;;;;;;2.35;1.17;;;24.10;99.90;;;;;;6090360;23;20662;-67
2023/09/03 12:10:38;;;;;;;2.10;0.75;;;23.90;99.90;;;;;;6116576;23;20014;-67
2023/09/03 12:13:04;;;;;;;3.00;0.70;;;23.70;99.90;;;;;;6092228;23;20664;-67
2023/09/03 12:15:31;;;;;;;4.75;1.90;;;23.30;99.90;;;;;;6117454;23;20010;-67
2023/09/03 12:18:10;;;;;;;1.67;1.00;;;23.40;99.90;;;;;;6117181;23;20661;-67
2023/09/03 12:20:41;;;;;;;9.40;4.97;;;23.50;99.90;;;;;;6117952;23;20072;-67
2023/09/03 12:23:13;;;;;;;1.55;0.70;;;23.60;99.90;;;;;;6118741;23;20018;-67
2023/09/03 12:25:39;;;;;;;1.60;0.52;;;23.90;99.90;;;;;;6091349;23;20060;-67
2023/09/03 12:28:06;;;;;;;4.05;1.33;;;24.10;99.90;;;;;;6089689;23;20021;-67
2023/09/03 12:30:56;;;;;;;11.75;6.43;;;24.30;99.90;;;;;;6091517;23;20495;-67
2023/09/03 12:33:46;;;;;;;2.95;1.33;;;24.50;99.90;;;;;;6092716;23;20370;-67
2023/09/03 12:36:16;;;;;;;29.90;12.77;;;24.70;99.90;;;;;;6090178;23;20694;-66
2023/09/03 12:38:59;;;;;;;4.35;1.42;;;24.70;99.90;;;;;;6092126;23;20112;-65
2023/09/03 12:41:30;;;;;;;2.00;0.80;;;24.90;99.90;;;;;;6089480;23;20491;-65
2023/09/03 12:44:03;;;;;;;1.58;0.60;;;24.90;99.90;;;;;;6090010;23;20052;-65
2023/09/03 12:46:29;;;;;;;1.90;0.80;;;25.00;99.90;;;;;;6088512;23;20084;-65
2023/09/03 12:48:54;;;;;;;0.95;0.47;;;25.00;99.90;;;;;;6118600;23;20025;-65
2023/09/03 12:51:20;;;;;;;2.28;0.90;;;24.80;99.90;;;;;;6118706;23;20056;-67